createdAt,value
2018-09-11T00:00:20.045Z,19.49
2018-09-11T00:02:49.063Z,19.53
2018-09-11T00:05:18.071Z,19.83
2018-09-11T00:07:47.060Z,19.52
2018-09-11T00:10:16.041Z,19.90
2018-09-11T00:12:45.023Z,19.57
2018-09-11T00:15:14.134Z,19.66
2018-09-11T00:17:43.083Z,19.66
2018-09-11T00:20:12.069Z,19.69
2018-09-11T00:22:41.112Z,19.86
2018-09-11T00:25:10.138Z,19.72
2018-09-11T00:27:39.136Z,19.78
2018-09-11T00:30:08.176Z,19.46
2018-09-11T00:32:37.136Z,19.57
2018-09-11T00:35:06.125Z,19.65
2018-09-11T00:37:35.147Z,19.51
2018-09-11T00:40:04.210Z,19.24
2018-09-11T00:42:33.290Z,19.54
2018-09-11T00:45:02.455Z,19.15
2018-09-11T00:47:31.367Z,19.23
2018-09-11T00:50:00.379Z,19.05
2018-09-11T00:52:29.346Z,19.11
2018-09-11T00:54:58.555Z,19.26
2018-09-11T00:57:27.488Z,19.26
2018-09-11T00:59:56.437Z,19.10
2018-09-11T01:02:25.389Z,19.11
2018-09-11T01:04:54.500Z,19.27
2018-09-11T01:07:23.460Z,19.32
2018-09-11T01:09:52.543Z,19.26
2018-09-11T01:12:21.477Z,19.24
2018-09-11T01:14:50.626Z,19.23
2018-09-11T01:17:19.601Z,19.16
2018-09-11T01:19:48.629Z,18.92
2018-09-11T01:22:17.658Z,18.87
2018-09-11T01:24:46.645Z,17.83
2018-09-11T01:27:15.602Z,18.30
2018-09-11T01:29:44.658Z,18.18
2018-09-11T01:32:13.642Z,18.42
2018-09-11T01:34:42.635Z,17.53
2018-09-11T01:37:11.698Z,17.76
2018-09-11T01:39:40.719Z,17.68
2018-09-11T01:42:09.662Z,17.31
2018-09-11T01:44:38.685Z,17.69
2018-09-11T01:47:07.646Z,17.46
2018-09-11T01:49:36.675Z,17.93
2018-09-11T01:52:05.730Z,17.94
2018-09-11T01:54:34.752Z,17.84
2018-09-11T01:57:03.702Z,17.93
2018-09-11T01:59:32.676Z,17.60
2018-09-11T02:02:01.742Z,17.97
2018-09-11T02:04:30.727Z,17.56
2018-09-11T02:06:59.704Z,17.42
2018-09-11T02:09:28.821Z,17.70
2018-09-11T02:11:57.765Z,17.96
2018-09-11T02:14:26.726Z,17.93
2018-09-11T02:16:55.750Z,17.66
2018-09-11T02:19:24.709Z,17.80
2018-09-11T02:21:53.786Z,17.22
2018-09-11T02:24:22.730Z,17.86
2018-09-11T02:26:51.726Z,17.68
2018-09-11T02:29:20.690Z,17.90
2018-09-11T02:31:49.682Z,17.70
2018-09-11T02:34:18.638Z,18.03
2018-09-11T02:36:47.647Z,18.10
2018-09-11T02:39:16.590Z,18.01
2018-09-11T02:41:45.605Z,17.53
2018-09-11T02:44:14.561Z,17.76
2018-09-11T02:46:43.610Z,17.86
2018-09-11T02:49:12.610Z,17.88
2018-09-11T02:51:41.726Z,17.68
2018-09-11T02:54:10.711Z,17.77
2018-09-11T02:56:39.750Z,17.87
2018-09-11T02:59:08.710Z,17.29
2018-09-11T03:01:37.772Z,17.55
2018-09-11T03:04:06.897Z,17.57
2018-09-11T03:06:35.896Z,17.55
2018-09-11T03:09:06.237Z,17.58
2018-09-11T03:11:35.379Z,17.40
2018-09-11T03:14:04.439Z,17.17
2018-09-11T03:16:33.430Z,17.50
2018-09-11T03:19:02.618Z,17.75
2018-09-11T03:21:31.623Z,17.62
2018-09-11T03:24:00.570Z,17.89
2018-09-11T03:26:29.693Z,17.89
2018-09-11T03:28:58.760Z,17.80
2018-09-11T03:31:27.738Z,17.53
2018-09-11T03:33:56.746Z,17.56
2018-09-11T03:36:25.726Z,17.30
2018-09-11T03:38:54.640Z,17.40
2018-09-11T03:41:23.625Z,17.20
2018-09-11T03:43:52.861Z,16.12
2018-09-11T03:46:22.181Z,16.95
2018-09-11T03:48:51.239Z,17.18
2018-09-11T03:51:20.230Z,16.79
2018-09-11T03:53:49.446Z,16.20
2018-09-11T03:56:25.085Z,15.73
2018-09-11T03:58:54.098Z,16.02
2018-09-11T04:01:23.075Z,15.91
2018-09-11T04:03:52.063Z,16.38
2018-09-11T04:06:21.083Z,16.71
2018-09-11T04:08:50.058Z,16.90
2018-09-11T04:11:19.024Z,16.64
2018-09-11T04:13:47.994Z,16.87
2018-09-11T04:16:16.990Z,16.75
2018-09-11T04:18:45.942Z,17.03
2018-09-11T04:21:14.993Z,16.77
2018-09-11T04:23:43.976Z,16.90
2018-09-11T04:26:13.084Z,16.82
2018-09-11T04:28:42.273Z,16.78
2018-09-11T04:31:11.405Z,17.04
2018-09-11T04:33:40.418Z,16.99
2018-09-11T04:36:09.467Z,17.08
2018-09-11T04:38:38.446Z,16.89
2018-09-11T04:41:07.409Z,17.00
2018-09-11T04:43:36.387Z,16.95
2018-09-11T04:46:05.451Z,17.03
2018-09-11T04:48:34.422Z,16.92
2018-09-11T04:51:03.448Z,16.81
2018-09-11T04:53:32.392Z,16.87
2018-09-11T04:56:01.604Z,16.87
2018-09-11T04:58:30.529Z,16.88
2018-09-11T05:00:59.966Z,16.93
2018-09-11T05:03:28.978Z,16.63
2018-09-11T05:05:58.012Z,16.80
2018-09-11T05:08:26.977Z,16.85
2018-09-11T05:10:56.160Z,16.90
2018-09-11T05:13:25.147Z,16.89
2018-09-11T05:15:54.200Z,16.80
2018-09-11T05:18:23.241Z,16.82
2018-09-11T05:20:52.234Z,16.77
2018-09-11T05:23:21.243Z,16.91
2018-09-11T05:25:50.238Z,17.11
2018-09-11T05:28:19.293Z,17.09
2018-09-11T05:30:48.338Z,16.79
2018-09-11T05:33:17.383Z,17.08
2018-09-11T05:35:46.424Z,17.17
2018-09-11T05:38:15.494Z,17.28
2018-09-11T05:40:44.534Z,16.74
2018-09-11T05:43:13.683Z,16.85
2018-09-11T05:45:42.614Z,16.36
2018-09-11T05:48:11.666Z,16.70
2018-09-11T05:50:40.735Z,16.35
2018-09-11T05:53:09.794Z,16.38
2018-09-11T05:55:38.893Z,16.72
2018-09-11T05:58:07.959Z,16.89
2018-09-11T06:00:36.959Z,17.15
2018-09-11T06:03:06.323Z,17.10
2018-09-11T06:05:35.355Z,17.07
2018-09-11T06:08:04.430Z,17.03
2018-09-11T06:10:33.430Z,17.37
2018-09-11T06:13:02.485Z,17.62
2018-09-11T06:15:32.331Z,17.52
2018-09-11T06:18:01.428Z,17.62
2018-09-11T06:20:30.455Z,17.83
2018-09-11T06:22:59.543Z,17.35
2018-09-11T06:25:28.587Z,17.12
2018-09-11T06:27:57.722Z,17.68
2018-09-11T06:30:26.746Z,18.61
2018-09-11T06:32:55.917Z,18.54
2018-09-11T06:35:25.022Z,19.01
2018-09-11T06:37:54.021Z,19.01
2018-09-11T06:40:22.990Z,18.51
2018-09-11T06:42:52.149Z,19.22
2018-09-11T06:45:21.082Z,19.66
2018-09-11T06:47:50.132Z,18.56
2018-09-11T06:50:19.089Z,19.31
2018-09-11T06:52:48.222Z,19.85
2018-09-11T06:55:17.205Z,19.32
2018-09-11T06:57:46.324Z,19.97
2018-09-11T07:00:15.389Z,19.59
2018-09-11T07:02:44.514Z,19.85
2018-09-11T07:05:13.481Z,20.11
2018-09-11T07:07:42.507Z,19.64
2018-09-11T07:10:11.514Z,19.68
2018-09-11T07:12:40.552Z,19.61
2018-09-11T07:15:09.622Z,20.00
2018-09-11T07:17:38.687Z,19.47
2018-09-11T07:20:08.822Z,20.49
2018-09-11T07:22:37.802Z,19.75
2018-09-11T07:25:06.948Z,19.77
2018-09-11T07:27:35.984Z,20.23
2018-09-11T07:30:04.966Z,20.62
2018-09-11T07:32:34.044Z,21.32
2018-09-11T07:35:03.091Z,21.47
2018-09-11T07:37:32.179Z,21.97
2018-09-11T07:40:01.291Z,20.89
2018-09-11T07:42:30.362Z,21.05
2018-09-11T07:44:59.375Z,21.43
2018-09-11T07:47:28.437Z,22.34
2018-09-11T07:49:57.391Z,22.77
2018-09-11T07:52:26.434Z,22.38
2018-09-11T07:54:55.487Z,22.20
2018-09-11T07:57:24.736Z,22.49
2018-09-11T07:59:53.682Z,22.58
2018-09-11T08:02:22.725Z,22.42
2018-09-11T08:04:51.758Z,22.39
2018-09-11T08:07:20.855Z,23.03
2018-09-11T08:09:49.875Z,22.81
2018-09-11T08:12:18.859Z,23.08
2018-09-11T08:14:47.890Z,23.54
2018-09-11T08:17:16.961Z,23.29
2018-09-11T08:19:46.065Z,24.02
2018-09-11T08:22:15.067Z,23.36
2018-09-11T08:24:44.151Z,23.78
2018-09-11T08:27:13.145Z,24.62
2018-09-11T08:29:42.188Z,24.52
2018-09-11T08:32:11.133Z,23.47
2018-09-11T08:34:40.137Z,23.81
2018-09-11T08:37:09.103Z,24.32
2018-09-11T08:39:38.228Z,24.41
2018-09-11T08:42:07.170Z,25.10
2018-09-11T08:44:36.263Z,24.13
2018-09-11T08:47:05.315Z,24.00
2018-09-11T08:49:34.269Z,23.97
2018-09-11T08:52:03.511Z,23.79
2018-09-11T08:54:32.546Z,24.45
2018-09-11T08:57:01.569Z,23.97
2018-09-11T08:59:30.610Z,23.42
2018-09-11T09:01:59.556Z,25.09
2018-09-11T09:04:28.535Z,24.27
2018-09-11T09:06:57.494Z,25.36
2018-09-11T09:09:26.465Z,25.17
2018-09-11T09:11:55.398Z,25.41
2018-09-11T09:14:24.378Z,25.38
2018-09-11T09:16:53.367Z,25.99
2018-09-11T09:19:22.338Z,25.89
2018-09-11T09:21:51.271Z,26.24
2018-09-11T09:24:20.326Z,26.63
2018-09-11T09:26:49.395Z,26.98
2018-09-11T09:29:18.410Z,26.31
2018-09-11T09:31:47.427Z,26.88
2018-09-11T09:34:16.441Z,26.36
2018-09-11T09:36:45.553Z,25.99
2018-09-11T09:39:14.562Z,25.86
2018-09-11T09:41:43.530Z,25.45
2018-09-11T09:44:12.527Z,25.98
2018-09-11T09:46:41.602Z,26.81
2018-09-11T09:49:10.971Z,26.11
2018-09-11T09:51:39.937Z,26.15
2018-09-11T09:54:08.942Z,25.92
2018-09-11T09:56:37.978Z,27.19
2018-09-11T09:59:06.977Z,27.70
2018-09-11T10:01:41.202Z,27.57
2018-09-11T10:04:10.270Z,27.02
2018-09-11T10:06:39.318Z,27.22
2018-09-11T10:09:10.480Z,27.57
2018-09-11T10:11:39.547Z,27.37
2018-09-11T10:14:08.646Z,28.07
2018-09-11T10:16:37.707Z,27.64
2018-09-11T10:19:06.825Z,28.18
2018-09-11T10:21:35.792Z,27.22
2018-09-11T10:24:04.979Z,26.99
2018-09-11T10:26:33.962Z,28.36
2018-09-11T10:29:02.915Z,27.97
2018-09-11T10:31:31.878Z,28.14
2018-09-11T10:34:00.910Z,28.97
2018-09-11T10:36:29.891Z,28.20
2018-09-11T10:38:59.102Z,28.80
2018-09-11T10:41:28.082Z,28.44
2018-09-11T10:43:57.031Z,29.23
2018-09-11T10:46:26.022Z,28.99
2018-09-11T10:48:55.112Z,29.05
2018-09-11T10:51:24.156Z,28.33
2018-09-11T10:53:53.155Z,27.97
2018-09-11T10:56:22.237Z,28.11
2018-09-11T10:58:51.562Z,28.66
2018-09-11T11:01:20.506Z,29.20
2018-09-11T11:03:49.678Z,30.04
2018-09-11T11:06:18.635Z,30.36
2018-09-11T11:08:47.677Z,30.49
2018-09-11T11:11:16.654Z,29.53
2018-09-11T11:13:45.615Z,28.44
2018-09-11T11:16:14.650Z,29.16
2018-09-11T11:18:43.645Z,29.76
2018-09-11T11:21:12.614Z,29.17
2018-09-11T11:23:41.695Z,29.82
2018-09-11T11:26:10.876Z,30.27
2018-09-11T11:28:39.805Z,30.40
2018-09-11T11:31:08.830Z,29.24
2018-09-11T11:33:37.809Z,29.06
2018-09-11T11:36:06.950Z,30.02
2018-09-11T11:38:35.868Z,30.73
2018-09-11T11:41:04.895Z,31.29
2018-09-11T11:43:33.802Z,31.41
2018-09-11T11:46:02.812Z,30.96
2018-09-11T11:48:31.858Z,31.87
2018-09-11T11:51:00.865Z,31.02
2018-09-11T11:53:29.849Z,30.11
2018-09-11T11:55:58.911Z,29.97
2018-09-11T11:58:27.854Z,31.30
2018-09-11T12:00:56.914Z,31.96
2018-09-11T12:03:25.930Z,31.46
2018-09-11T12:05:54.892Z,31.60
2018-09-11T12:08:23.951Z,30.70
2018-09-11T12:10:53.058Z,29.84
2018-09-11T12:13:22.061Z,30.38
2018-09-11T12:15:51.125Z,31.38
2018-09-11T12:18:20.103Z,30.72
2018-09-11T12:20:49.153Z,30.86
2018-09-11T12:23:18.185Z,31.16
2018-09-11T12:25:47.207Z,31.53
2018-09-11T12:28:16.338Z,31.59
2018-09-11T12:30:45.369Z,31.24
2018-09-11T12:33:14.481Z,30.77
2018-09-11T12:35:43.600Z,31.15
2018-09-11T12:38:12.568Z,30.92
2018-09-11T12:40:41.688Z,31.03
2018-09-11T12:43:10.659Z,32.17
2018-09-11T12:45:39.739Z,32.68
2018-09-11T12:48:09.111Z,31.52
2018-09-11T12:50:37.825Z,31.61
2018-09-11T12:53:06.950Z,32.28
2018-09-11T12:55:35.973Z,31.80
2018-09-11T12:58:04.997Z,32.13
2018-09-11T13:00:34.042Z,31.97
2018-09-11T13:03:03.036Z,32.19
2018-09-11T13:05:32.154Z,32.47
2018-09-11T13:08:01.158Z,30.57
2018-09-11T13:10:30.190Z,32.40
2018-09-11T13:12:59.219Z,32.47
2018-09-11T13:15:28.249Z,32.08
2018-09-11T13:17:57.258Z,32.87
2018-09-11T13:20:26.307Z,31.98
2018-09-11T13:22:55.335Z,31.86
2018-09-11T13:25:24.470Z,32.76
2018-09-11T13:27:53.498Z,33.19
2018-09-11T13:30:22.516Z,32.43
2018-09-11T13:32:51.562Z,32.97
2018-09-11T13:35:20.593Z,33.23
2018-09-11T13:37:49.617Z,32.89
2018-09-11T13:40:18.614Z,33.72
2018-09-11T13:42:47.611Z,33.27
2018-09-11T13:45:16.706Z,33.35
2018-09-11T13:47:45.858Z,34.28
2018-09-11T13:50:14.872Z,33.48
2018-09-11T13:52:43.944Z,33.10
2018-09-11T13:55:13.017Z,31.63
2018-09-11T13:57:42.006Z,32.68
2018-09-11T14:00:11.160Z,33.49
2018-09-11T14:02:40.566Z,33.39
2018-09-11T14:05:09.750Z,32.80
2018-09-11T14:07:38.886Z,33.97
2018-09-11T14:10:07.967Z,32.98
2018-09-11T14:12:37.076Z,33.16
2018-09-11T14:15:06.536Z,33.08
2018-09-11T14:17:35.607Z,32.31
2018-09-11T14:20:05.302Z,34.04
2018-09-11T14:22:34.312Z,34.66
2018-09-11T14:25:03.309Z,34.28
2018-09-11T14:27:32.379Z,34.88
2018-09-11T14:30:01.399Z,35.02
2018-09-11T14:32:30.350Z,33.86
2018-09-11T14:34:59.342Z,33.43
2018-09-11T14:37:28.298Z,33.40
2018-09-11T14:39:57.306Z,33.49
2018-09-11T14:42:26.363Z,33.62
2018-09-11T14:44:55.342Z,34.89
2018-09-11T14:47:24.549Z,34.99
2018-09-11T14:49:53.537Z,34.78
2018-09-11T14:52:22.540Z,35.04
2018-09-11T14:54:51.531Z,35.25
2018-09-11T14:57:20.567Z,35.28
2018-09-11T14:59:49.540Z,35.98
2018-09-11T15:02:18.579Z,35.17
2018-09-11T15:04:47.638Z,36.07
2018-09-11T15:07:16.767Z,35.56
2018-09-11T15:09:45.802Z,35.87
2018-09-11T15:12:14.808Z,33.50
2018-09-11T15:14:43.832Z,33.23
2018-09-11T15:17:12.871Z,32.91
2018-09-11T15:19:41.946Z,32.34
2018-09-11T15:22:10.970Z,32.89
2018-09-11T15:24:40.292Z,31.77
2018-09-11T15:27:09.336Z,31.66
2018-09-11T15:29:38.335Z,30.93
2018-09-11T15:32:07.470Z,31.16
2018-09-11T15:34:36.450Z,31.27
2018-09-11T15:37:05.482Z,30.62
2018-09-11T15:39:34.487Z,31.05
2018-09-11T15:42:03.534Z,30.53
2018-09-11T15:44:32.586Z,30.69
2018-09-11T15:47:01.828Z,30.03
2018-09-11T15:49:30.735Z,30.65
2018-09-11T15:51:59.766Z,30.42
2018-09-11T15:54:28.777Z,30.56
2018-09-11T15:56:57.802Z,30.10
2018-09-11T15:59:26.774Z,30.14
2018-09-11T16:01:55.806Z,29.79
2018-09-11T16:04:24.854Z,29.89
2018-09-11T16:06:53.970Z,30.21
2018-09-11T16:09:23.174Z,29.74
2018-09-11T16:11:52.203Z,30.08
2018-09-11T16:14:21.242Z,30.23
2018-09-11T16:16:50.293Z,29.85
2018-09-11T16:19:19.251Z,29.72
2018-09-11T16:21:48.342Z,29.52
2018-09-11T16:24:17.341Z,29.49
2018-09-11T16:26:46.518Z,29.61
2018-09-11T16:29:15.504Z,29.07
2018-09-11T16:31:44.567Z,29.16
2018-09-11T16:34:13.613Z,29.41
2018-09-11T16:36:42.784Z,29.47
2018-09-11T16:39:13.142Z,29.10
2018-09-11T16:41:42.372Z,29.25
2018-09-11T16:44:11.334Z,29.19
2018-09-11T16:46:40.375Z,28.84
2018-09-11T16:49:09.701Z,28.88
2018-09-11T16:51:39.146Z,29.11
2018-09-11T16:54:08.196Z,29.04
2018-09-11T16:56:37.223Z,28.69
2018-09-11T16:59:06.274Z,28.67
2018-09-11T17:01:35.306Z,28.63
2018-09-11T17:04:04.282Z,28.75
2018-09-11T17:06:33.346Z,28.62
2018-09-11T17:09:02.324Z,28.69
2018-09-11T17:11:31.396Z,28.41
2018-09-11T17:14:00.500Z,28.26
2018-09-11T17:16:29.625Z,28.27
2018-09-11T17:18:58.660Z,28.12
2018-09-11T17:21:27.687Z,28.40
2018-09-11T17:23:56.785Z,28.38
2018-09-11T17:26:25.734Z,28.34
2018-09-11T17:28:54.786Z,28.49
2018-09-11T17:31:23.778Z,28.56
2018-09-11T17:33:52.908Z,28.26
2018-09-11T17:36:21.850Z,27.96
2018-09-11T17:38:50.846Z,28.12
2018-09-11T17:41:19.761Z,28.33
2018-09-11T17:43:48.755Z,28.36
2018-09-11T17:46:17.668Z,28.28
2018-09-11T17:48:46.834Z,28.23
2018-09-11T17:51:15.794Z,27.91
2018-09-11T17:53:44.838Z,28.04
2018-09-11T17:56:13.899Z,28.22
2018-09-11T17:58:42.981Z,28.02
2018-09-11T18:01:12.049Z,27.82
2018-09-11T18:03:41.028Z,28.15
2018-09-11T18:06:10.143Z,28.00
2018-09-11T18:08:39.327Z,27.94
2018-09-11T18:11:08.335Z,27.62
2018-09-11T18:13:37.330Z,27.89
2018-09-11T18:16:06.307Z,27.42
2018-09-11T18:18:35.311Z,27.57
2018-09-11T18:21:04.261Z,27.48
2018-09-11T18:23:33.302Z,26.94
2018-09-11T18:26:02.432Z,26.70
2018-09-11T18:28:31.498Z,26.87
2018-09-11T18:31:00.514Z,27.42
2018-09-11T18:33:29.497Z,27.79
2018-09-11T18:35:58.506Z,27.80
2018-09-11T18:38:27.660Z,27.80
2018-09-11T18:40:56.702Z,27.54
2018-09-11T18:43:25.720Z,27.24
2018-09-11T18:45:54.764Z,27.01
2018-09-11T18:48:23.815Z,27.22
2018-09-11T18:50:52.794Z,27.03
2018-09-11T18:53:21.884Z,27.35
2018-09-11T18:55:50.967Z,26.85
2018-09-11T18:58:19.991Z,26.67
2018-09-11T19:00:49.003Z,26.55
2018-09-11T19:03:18.018Z,26.69
2018-09-11T19:05:46.993Z,26.44
2018-09-11T19:08:16.218Z,26.78
2018-09-11T19:10:45.259Z,26.17
2018-09-11T19:13:14.402Z,25.12
2018-09-11T19:15:43.487Z,25.51
2018-09-11T19:18:12.517Z,25.67
2018-09-11T19:20:41.614Z,25.52
2018-09-11T19:23:10.715Z,25.81
2018-09-11T19:25:39.738Z,25.51
2018-09-11T19:28:08.790Z,25.16
2018-09-11T19:30:37.739Z,25.15
2018-09-11T19:33:06.787Z,24.77
2018-09-11T19:35:35.810Z,24.65
2018-09-11T19:38:04.798Z,24.83
2018-09-11T19:40:33.786Z,25.21
2018-09-11T19:43:02.970Z,24.75
2018-09-11T19:45:31.879Z,25.19
2018-09-11T19:48:00.932Z,24.89
2018-09-11T19:50:29.903Z,25.41
2018-09-11T19:52:58.910Z,24.96
2018-09-11T19:55:27.815Z,25.02
2018-09-11T19:57:56.998Z,24.58
2018-09-11T20:00:26.000Z,24.69
2018-09-11T20:02:55.060Z,24.44
2018-09-11T20:05:24.006Z,24.57
2018-09-11T20:07:52.991Z,24.28
2018-09-11T20:10:21.921Z,24.32
2018-09-11T20:12:50.984Z,23.96
2018-09-11T20:15:20.056Z,24.24
2018-09-11T20:17:49.013Z,23.88
2018-09-11T20:20:17.968Z,24.21
2018-09-11T20:22:46.955Z,24.38
2018-09-11T20:25:16.132Z,24.49
2018-09-11T20:27:45.240Z,24.16
2018-09-11T20:30:14.315Z,24.01
2018-09-11T20:32:43.311Z,23.81
2018-09-11T20:35:12.299Z,23.99
2018-09-11T20:37:41.295Z,24.27
2018-09-11T20:40:10.324Z,23.76
2018-09-11T20:42:39.343Z,23.84
2018-09-11T20:45:08.440Z,23.85
2018-09-11T20:47:37.409Z,24.03
2018-09-11T20:50:06.574Z,23.45
2018-09-11T20:52:35.531Z,23.59
2018-09-11T20:55:04.654Z,23.78
2018-09-11T20:57:33.606Z,23.76
2018-09-11T21:00:02.701Z,23.83
2018-09-11T21:02:31.665Z,23.61
2018-09-11T21:05:00.603Z,23.61
2018-09-11T21:07:29.505Z,23.14
2018-09-11T21:09:58.886Z,23.30
2018-09-11T21:12:28.138Z,23.29
2018-09-11T21:14:57.103Z,23.54
2018-09-11T21:17:26.010Z,23.44
2018-09-11T21:19:55.041Z,22.92
2018-09-11T21:22:23.958Z,23.26
2018-09-11T21:24:52.926Z,22.76
2018-09-11T21:27:21.900Z,22.60
2018-09-11T21:29:50.954Z,22.84
2018-09-11T21:32:19.925Z,22.77
2018-09-11T21:34:48.982Z,22.66
2018-09-11T21:37:18.025Z,22.78
2018-09-11T21:39:47.130Z,22.89
2018-09-11T21:42:16.066Z,22.57
2018-09-11T21:44:45.157Z,22.73
2018-09-11T21:47:14.179Z,22.73
2018-09-11T21:49:43.178Z,22.00
2018-09-11T21:52:12.166Z,22.30
2018-09-11T21:54:41.315Z,22.54
2018-09-11T21:57:10.279Z,22.13
2018-09-11T21:59:39.318Z,22.32
2018-09-11T22:02:08.282Z,22.08
2018-09-11T22:04:37.347Z,21.54
2018-09-11T22:07:06.418Z,21.85
2018-09-11T22:09:35.498Z,21.82
2018-09-11T22:12:04.522Z,21.69
2018-09-11T22:14:33.633Z,22.03
2018-09-11T22:17:02.601Z,21.83
2018-09-11T22:19:31.600Z,21.90
2018-09-11T22:22:00.650Z,22.01
2018-09-11T22:24:29.722Z,22.15
2018-09-11T22:26:58.719Z,21.93
2018-09-11T22:29:27.766Z,21.98
2018-09-11T22:31:56.850Z,22.06
2018-09-11T22:34:25.947Z,21.89
2018-09-11T22:36:54.935Z,21.73
2018-09-11T22:39:23.903Z,21.22
2018-09-11T22:41:52.910Z,21.46
2018-09-11T22:44:21.885Z,21.39
2018-09-11T22:46:50.989Z,21.62
2018-09-11T22:49:20.029Z,21.68
2018-09-11T22:51:48.954Z,21.45
2018-09-11T22:54:17.965Z,21.45
2018-09-11T22:56:46.908Z,21.00
2018-09-11T22:59:15.864Z,21.25
2018-09-11T23:01:44.827Z,21.48
2018-09-11T23:04:13.802Z,21.40
2018-09-11T23:06:42.798Z,21.27
2018-09-11T23:09:12.235Z,21.25
2018-09-11T23:11:41.272Z,21.24
2018-09-11T23:14:10.304Z,21.29
2018-09-11T23:16:39.299Z,21.29
2018-09-11T23:19:08.278Z,21.17
2018-09-11T23:21:37.282Z,20.95
2018-09-11T23:24:05.749Z,19.60
2018-09-11T23:26:34.904Z,20.54
2018-09-11T23:29:03.900Z,20.72
2018-09-11T23:31:32.888Z,20.61
2018-09-11T23:34:01.844Z,20.74
2018-09-11T23:36:30.830Z,20.54
2018-09-11T23:38:59.772Z,20.52
2018-09-11T23:41:28.884Z,20.80
2018-09-11T23:43:57.889Z,20.65
2018-09-11T23:46:26.874Z,20.48
2018-09-11T23:48:55.854Z,20.61
2018-09-11T23:51:24.819Z,20.45
2018-09-11T23:53:53.786Z,20.03
2018-09-11T23:56:22.874Z,19.98
2018-09-11T23:58:51.864Z,20.26
